sensor_id;sensor_type;location;lat;lon;timestamp;P1;P2;P0
72307;PMS5003;60257;42.638;23.376;2022-12-18T00:01:42;17.33;17.33;11.00
72307;PMS5003;60257;42.638;23.376;2022-12-18T00:04:08;14.67;14.33;10.00
72307;PMS5003;60257;42.638;23.376;2022-12-18T00:06:43;15.67;15.67;11.00
72307;PMS5003;60257;42.638;23.376;2022-12-18T00:09:09;13.00;12.00;8.00
72307;PMS5003;60257;42.638;23.376;2022-12-18T00:11:35;16.00;14.00;9.00
72307;PMS5003;60257;42.638;23.376;2022-12-18T00:14:01;17.00;15.33;8.67
72307;PMS5003;60257;42.638;23.376;2022-12-18T00:16:27;12.33;11.00;5.33
72307;PMS5003;60257;42.638;23.376;2022-12-18T00:18:54;15.00;13.00;6.67
72307;PMS5003;60257;42.638;23.376;2022-12-18T00:21:20;15.67;14.67;10.33
72307;PMS5003;60257;42.638;23.376;2022-12-18T00:23:47;16.00;15.33;7.33
72307;PMS5003;60257;42.638;23.376;2022-12-18T00:26:15;20.33;20.33;10.33
72307;PMS5003;60257;42.638;23.376;2022-12-18T00:28:43;18.67;16.67;11.00
72307;PMS5003;60257;42.638;23.376;2022-12-18T00:31:11;19.67;17.33;9.00
72307;PMS5003;60257;42.638;23.376;2022-12-18T00:33:37;27.00;25.33;12.00
72307;PMS5003;60257;42.638;23.376;2022-12-18T00:36:04;11.33;10.33;5.33
72307;PMS5003;60257;42.638;23.376;2022-12-18T00:38:31;14.00;13.67;6.00
72307;PMS5003;60257;42.638;23.376;2022-12-18T00:40:57;19.00;18.33;10.00
72307;PMS5003;60257;42.638;23.376;2022-12-18T00:43:22;18.00;17.00;10.00
72307;PMS5003;60257;42.638;23.376;2022-12-18T00:45:48;18.00;18.00;10.67
72307;PMS5003;60257;42.638;23.376;2022-12-18T00:48:13;20.00;20.00;11.00
72307;PMS5003;60257;42.638;23.376;2022-12-18T00:50:39;20.33;20.33;12.00
72307;PMS5003;60257;42.638;23.376;2022-12-18T00:53:05;19.67;18.00;10.33
72307;PMS5003;60257;42.638;23.376;2022-12-18T00:55:31;19.67;17.00;9.67
72307;PMS5003;60257;42.638;23.376;2022-12-18T00:57:57;22.00;20.33;9.33
72307;PMS5003;60257;42.638;23.376;2022-12-18T01:00:22;18.67;18.00;9.67
72307;PMS5003;60257;42.638;23.376;2022-12-18T01:02:48;27.00;22.00;12.67
72307;PMS5003;60257;42.638;23.376;2022-12-18T01:05:13;21.33;19.00;10.67
72307;PMS5003;60257;42.638;23.376;2022-12-18T01:07:40;29.33;26.00;13.33
72307;PMS5003;60257;42.638;23.376;2022-12-18T01:10:06;25.00;21.33;12.33
72307;PMS5003;60257;42.638;23.376;2022-12-18T01:12:33;17.33;16.33;10.00
72307;PMS5003;60257;42.638;23.376;2022-12-18T01:14:58;27.33;23.67;12.33
72307;PMS5003;60257;42.638;23.376;2022-12-18T01:17:24;24.00;22.00;14.00
72307;PMS5003;60257;42.638;23.376;2022-12-18T01:19:49;31.00;25.00;15.00
72307;PMS5003;60257;42.638;23.376;2022-12-18T01:22:15;30.33;28.00;13.67
72307;PMS5003;60257;42.638;23.376;2022-12-18T01:24:40;22.00;22.00;12.33
72307;PMS5003;60257;42.638;23.376;2022-12-18T01:27:06;30.67;27.00;16.67
72307;PMS5003;60257;42.638;23.376;2022-12-18T01:29:32;28.00;23.00;13.00
72307;PMS5003;60257;42.638;23.376;2022-12-18T01:31:57;23.00;22.00;11.00
72307;PMS5003;60257;42.638;23.376;2022-12-18T01:34:23;19.67;18.33;13.00
72307;PMS5003;60257;42.638;23.376;2022-12-18T01:36:49;27.33;25.00;16.00
72307;PMS5003;60257;42.638;23.376;2022-12-18T01:39:17;20.67;19.00;10.67
72307;PMS5003;60257;42.638;23.376;2022-12-18T01:41:43;19.00;16.00;9.00
72307;PMS5003;60257;42.638;23.376;2022-12-18T01:52:40;30.00;26.33;16.33
72307;PMS5003;60257;42.638;23.376;2022-12-18T01:55:08;25.00;21.00;14.00
72307;PMS5003;60257;42.638;23.376;2022-12-18T01:57:36;26.00;24.00;15.00
72307;PMS5003;60257;42.638;23.376;2022-12-18T02:00:06;26.00;22.33;13.00
72307;PMS5003;60257;42.638;23.376;2022-12-18T02:02:34;25.67;25.00;14.33
72307;PMS5003;60257;42.638;23.376;2022-12-18T02:05:00;26.00;24.00;15.00
72307;PMS5003;60257;42.638;23.376;2022-12-18T02:07:29;18.67;18.67;14.00
72307;PMS5003;60257;42.638;23.376;2022-12-18T02:16:13;26.67;25.33;14.00
72307;PMS5003;60257;42.638;23.376;2022-12-18T02:18:59;25.67;24.00;14.00
72307;PMS5003;60257;42.638;23.376;2022-12-18T02:27:17;25.33;22.33;4.33
72307;PMS5003;60257;42.638;23.376;2022-12-18T02:29:48;20.67;18.67;14.67
72307;PMS5003;60257;42.638;23.376;2022-12-18T02:32:18;27.33;26.00;15.00
72307;PMS5003;60257;42.638;23.376;2022-12-18T02:34:49;26.00;25.67;15.67
72307;PMS5003;60257;42.638;23.376;2022-12-18T02:37:18;27.67;27.67;18.67
72307;PMS5003;60257;42.638;23.376;2022-12-18T02:39:46;27.33;24.00;13.00
72307;PMS5003;60257;42.638;23.376;2022-12-18T02:42:14;29.00;26.00;17.00
72307;PMS5003;60257;42.638;23.376;2022-12-18T02:44:43;31.00;27.00;15.00
72307;PMS5003;60257;42.638;23.376;2022-12-18T02:47:13;25.67;25.67;16.33
72307;PMS5003;60257;42.638;23.376;2022-12-18T02:55:06;22.33;22.33;14.00
72307;PMS5003;60257;42.638;23.376;2022-12-18T03:03:34;27.00;27.00;17.00
72307;PMS5003;60257;42.638;23.376;2022-12-18T03:08:37;29.33;28.00;17.00
72307;PMS5003;60257;42.638;23.376;2022-12-18T03:11:11;24.33;23.33;16.00
72307;PMS5003;60257;42.638;23.376;2022-12-18T03:13:54;25.33;23.33;15.33
72307;PMS5003;60257;42.638;23.376;2022-12-18T03:16:23;29.67;28.33;15.00
72307;PMS5003;60257;42.638;23.376;2022-12-18T03:19:01;22.33;20.67;13.00
72307;PMS5003;60257;42.638;23.376;2022-12-18T03:21:39;27.00;22.00;12.67
72307;PMS5003;60257;42.638;23.376;2022-12-18T03:24:10;27.00;23.67;15.00
72307;PMS5003;60257;42.638;23.376;2022-12-18T03:26:37;33.00;26.67;19.00
72307;PMS5003;60257;42.638;23.376;2022-12-18T03:29:07;28.33;27.33;17.00
72307;PMS5003;60257;42.638;23.376;2022-12-18T03:31:39;17.67;15.67;9.00
72307;PMS5003;60257;42.638;23.376;2022-12-18T03:34:14;24.67;24.00;14.67
72307;PMS5003;60257;42.638;23.376;2022-12-18T03:36:46;23.33;21.33;10.67
72307;PMS5003;60257;42.638;23.376;2022-12-18T03:39:13;22.67;21.00;13.00
72307;PMS5003;60257;42.638;23.376;2022-12-18T03:41:52;29.00;22.33;14.00
72307;PMS5003;60257;42.638;23.376;2022-12-18T03:44:44;16.33;16.00;13.00
72307;PMS5003;60257;42.638;23.376;2022-12-18T03:55:15;28.00;26.00;13.67
72307;PMS5003;60257;42.638;23.376;2022-12-18T03:57:42;24.33;19.33;13.67
72307;PMS5003;60257;42.638;23.376;2022-12-18T04:00:10;29.67;26.00;14.00
72307;PMS5003;60257;42.638;23.376;2022-12-18T04:02:39;22.00;18.00;11.00
72307;PMS5003;60257;42.638;23.376;2022-12-18T04:05:09;25.67;23.00;14.33
72307;PMS5003;60257;42.638;23.376;2022-12-18T04:07:37;25.00;24.00;13.00
72307;PMS5003;60257;42.638;23.376;2022-12-18T04:10:04;23.67;21.00;13.67
72307;PMS5003;60257;42.638;23.376;2022-12-18T04:12:32;25.67;23.00;15.00
72307;PMS5003;60257;42.638;23.376;2022-12-18T04:14:57;21.33;21.33;14.33
72307;PMS5003;60257;42.638;23.376;2022-12-18T04:17:23;32.33;28.00;14.00
72307;PMS5003;60257;42.638;23.376;2022-12-18T04:19:49;23.33;22.67;13.00
72307;PMS5003;60257;42.638;23.376;2022-12-18T04:22:15;21.00;18.33;9.67
72307;PMS5003;60257;42.638;23.376;2022-12-18T04:24:40;16.33;16.00;10.00
72307;PMS5003;60257;42.638;23.376;2022-12-18T04:27:06;28.00;26.00;16.67
72307;PMS5003;60257;42.638;23.376;2022-12-18T04:29:31;22.33;20.00;12.00
72307;PMS5003;60257;42.638;23.376;2022-12-18T04:31:57;28.33;27.00;15.00
72307;PMS5003;60257;42.638;23.376;2022-12-18T04:34:22;28.67;27.33;17.00
72307;PMS5003;60257;42.638;23.376;2022-12-18T04:36:47;23.67;21.33;16.33
72307;PMS5003;60257;42.638;23.376;2022-12-18T04:39:13;32.67;28.67;17.33
72307;PMS5003;60257;42.638;23.376;2022-12-18T04:41:39;29.00;29.00;17.67
72307;PMS5003;60257;42.638;23.376;2022-12-18T04:44:05;28.00;25.33;16.00
72307;PMS5003;60257;42.638;23.376;2022-12-18T04:46:30;26.33;25.00;15.33
72307;PMS5003;60257;42.638;23.376;2022-12-18T04:48:56;26.67;24.33;13.67
72307;PMS5003;60257;42.638;23.376;2022-12-18T04:51:21;29.00;26.67;15.67
72307;PMS5003;60257;42.638;23.376;2022-12-18T04:53:47;24.00;24.00;14.00
72307;PMS5003;60257;42.638;23.376;2022-12-18T04:56:13;21.00;21.00;13.33
72307;PMS5003;60257;42.638;23.376;2022-12-18T04:58:40;23.00;21.00;9.00
72307;PMS5003;60257;42.638;23.376;2022-12-18T05:01:07;24.33;24.33;15.67
72307;PMS5003;60257;42.638;23.376;2022-12-18T05:03:33;28.67;27.67;16.67
72307;PMS5003;60257;42.638;23.376;2022-12-18T05:05:59;29.00;26.33;16.67
72307;PMS5003;60257;42.638;23.376;2022-12-18T05:08:25;31.67;27.67;18.00
72307;PMS5003;60257;42.638;23.376;2022-12-18T05:10:58;27.67;26.00;18.67
72307;PMS5003;60257;42.638;23.376;2022-12-18T05:13:34;20.33;20.33;13.33
72307;PMS5003;60257;42.638;23.376;2022-12-18T05:16:01;28.00;21.33;9.33
72307;PMS5003;60257;42.638;23.376;2022-12-18T05:18:27;38.00;36.67;21.00
72307;PMS5003;60257;42.638;23.376;2022-12-18T05:20:53;29.00;27.00;16.33
72307;PMS5003;60257;42.638;23.376;2022-12-18T05:23:19;29.33;26.00;14.67
72307;PMS5003;60257;42.638;23.376;2022-12-18T05:25:50;30.67;28.67;13.67
72307;PMS5003;60257;42.638;23.376;2022-12-18T05:28:16;30.67;29.33;15.33
72307;PMS5003;60257;42.638;23.376;2022-12-18T05:30:42;33.33;26.67;17.67
72307;PMS5003;60257;42.638;23.376;2022-12-18T05:33:07;30.00;24.67;16.33
72307;PMS5003;60257;42.638;23.376;2022-12-18T05:35:33;16.67;13.00;6.00
72307;PMS5003;60257;42.638;23.376;2022-12-18T05:37:58;33.33;33.33;20.00
72307;PMS5003;60257;42.638;23.376;2022-12-18T05:40:24;28.67;27.67;14.00
72307;PMS5003;60257;42.638;23.376;2022-12-18T05:42:49;30.33;28.00;16.00
72307;PMS5003;60257;42.638;23.376;2022-12-18T05:45:15;28.33;25.33;13.67
72307;PMS5003;60257;42.638;23.376;2022-12-18T05:47:40;39.00;30.33;16.00
72307;PMS5003;60257;42.638;23.376;2022-12-18T05:50:06;40.33;33.67;17.00
72307;PMS5003;60257;42.638;23.376;2022-12-18T05:52:32;21.00;20.67;16.33
72307;PMS5003;60257;42.638;23.376;2022-12-18T05:54:58;30.67;28.67;18.00
72307;PMS5003;60257;42.638;23.376;2022-12-18T05:57:24;34.67;32.00;19.00
72307;PMS5003;60257;42.638;23.376;2022-12-18T05:59:49;36.33;31.00;19.00
72307;PMS5003;60257;42.638;23.376;2022-12-18T06:02:15;33.75;32.75;19.75
72307;PMS5003;60257;42.638;23.376;2022-12-18T06:04:40;38.00;35.00;19.00
72307;PMS5003;60257;42.638;23.376;2022-12-18T06:07:05;37.25;29.00;15.50
72307;PMS5003;60257;42.638;23.376;2022-12-18T06:09:31;41.67;34.33;22.33
72307;PMS5003;60257;42.638;23.376;2022-12-18T06:11:57;36.00;32.75;17.50
72307;PMS5003;60257;42.638;23.376;2022-12-18T06:14:22;35.00;33.67;17.67
72307;PMS5003;60257;42.638;23.376;2022-12-18T06:16:50;33.67;31.33;19.33
72307;PMS5003;60257;42.638;23.376;2022-12-18T06:19:16;39.00;36.00;21.00
72307;PMS5003;60257;42.638;23.376;2022-12-18T06:21:42;33.00;25.67;19.33
72307;PMS5003;60257;42.638;23.376;2022-12-18T06:24:07;35.50;30.25;20.75
72307;PMS5003;60257;42.638;23.376;2022-12-18T06:26:33;39.00;37.50;19.00
72307;PMS5003;60257;42.638;23.376;2022-12-18T06:28:58;43.75;38.00;20.50
72307;PMS5003;60257;42.638;23.376;2022-12-18T06:31:24;39.25;36.25;17.50
72307;PMS5003;60257;42.638;23.376;2022-12-18T06:33:50;41.25;36.25;18.75
72307;PMS5003;60257;42.638;23.376;2022-12-18T06:36:16;43.00;41.25;20.00
72307;PMS5003;60257;42.638;23.376;2022-12-18T06:38:42;43.25;40.50;22.00
72307;PMS5003;60257;42.638;23.376;2022-12-18T06:41:09;39.25;36.00;19.50
72307;PMS5003;60257;42.638;23.376;2022-12-18T06:43:43;33.50;32.00;22.00
72307;PMS5003;60257;42.638;23.376;2022-12-18T06:46:09;38.50;35.00;20.25
72307;PMS5003;60257;42.638;23.376;2022-12-18T06:48:35;42.25;39.00;22.50
72307;PMS5003;60257;42.638;23.376;2022-12-18T06:51:02;40.25;34.25;21.75
72307;PMS5003;60257;42.638;23.376;2022-12-18T06:53:28;43.50;38.75;22.25
72307;PMS5003;60257;42.638;23.376;2022-12-18T06:56:04;41.75;38.00;22.25
72307;PMS5003;60257;42.638;23.376;2022-12-18T06:58:32;30.00;29.25;21.25
72307;PMS5003;60257;42.638;23.376;2022-12-18T07:01:01;43.75;38.00;21.00
72307;PMS5003;60257;42.638;23.376;2022-12-18T07:03:30;33.75;30.75;19.75
72307;PMS5003;60257;42.638;23.376;2022-12-18T07:05:56;29.25;26.00;16.75
72307;PMS5003;60257;42.638;23.376;2022-12-18T07:08:21;39.25;33.50;20.50
72307;PMS5003;60257;42.638;23.376;2022-12-18T07:10:47;37.00;31.75;19.00
72307;PMS5003;60257;42.638;23.376;2022-12-18T07:13:14;33.00;32.25;14.50
72307;PMS5003;60257;42.638;23.376;2022-12-18T07:15:40;37.25;35.25;18.00
72307;PMS5003;60257;42.638;23.376;2022-12-18T07:18:06;35.33;31.67;19.00
72307;PMS5003;60257;42.638;23.376;2022-12-18T07:20:31;36.75;30.75;19.25
72307;PMS5003;60257;42.638;23.376;2022-12-18T07:22:56;26.25;22.25;9.00
72307;PMS5003;60257;42.638;23.376;2022-12-18T07:25:22;38.75;35.00;20.00
72307;PMS5003;60257;42.638;23.376;2022-12-18T07:27:48;42.75;38.25;21.00
72307;PMS5003;60257;42.638;23.376;2022-12-18T07:30:13;41.75;38.75;23.25
72307;PMS5003;60257;42.638;23.376;2022-12-18T07:32:39;44.50;40.25;23.00
72307;PMS5003;60257;42.638;23.376;2022-12-18T07:35:04;41.75;35.25;23.00
72307;PMS5003;60257;42.638;23.376;2022-12-18T07:37:30;39.00;31.75;21.00
72307;PMS5003;60257;42.638;23.376;2022-12-18T07:39:55;41.75;40.00;22.50
72307;PMS5003;60257;42.638;23.376;2022-12-18T07:42:20;38.00;34.25;19.50
72307;PMS5003;60257;42.638;23.376;2022-12-18T07:44:55;48.25;42.75;25.50
72307;PMS5003;60257;42.638;23.376;2022-12-18T07:47:21;40.00;37.50;19.25
72307;PMS5003;60257;42.638;23.376;2022-12-18T07:49:46;41.75;38.75;21.50
72307;PMS5003;60257;42.638;23.376;2022-12-18T07:52:12;35.00;33.50;20.25
72307;PMS5003;60257;42.638;23.376;2022-12-18T07:54:37;45.25;36.75;23.75
72307;PMS5003;60257;42.638;23.376;2022-12-18T07:57:03;38.75;32.75;19.00
72307;PMS5003;60257;42.638;23.376;2022-12-18T07:59:29;39.00;30.75;19.00
72307;PMS5003;60257;42.638;23.376;2022-12-18T08:01:54;40.00;34.00;20.00
72307;PMS5003;60257;42.638;23.376;2022-12-18T08:04:20;48.00;37.00;18.50
72307;PMS5003;60257;42.638;23.376;2022-12-18T08:06:45;33.00;29.75;8.25
72307;PMS5003;60257;42.638;23.376;2022-12-18T08:09:11;42.00;40.00;25.00
72307;PMS5003;60257;42.638;23.376;2022-12-18T08:11:37;48.25;40.50;23.75
72307;PMS5003;60257;42.638;23.376;2022-12-18T08:14:02;37.75;36.75;23.50
72307;PMS5003;60257;42.638;23.376;2022-12-18T08:16:28;43.50;39.25;24.75
72307;PMS5003;60257;42.638;23.376;2022-12-18T08:18:53;35.50;30.50;9.25
72307;PMS5003;60257;42.638;23.376;2022-12-18T08:21:21;43.00;38.75;23.25
72307;PMS5003;60257;42.638;23.376;2022-12-18T08:23:49;42.00;38.50;21.00
72307;PMS5003;60257;42.638;23.376;2022-12-18T08:26:15;51.25;44.00;27.00
72307;PMS5003;60257;42.638;23.376;2022-12-18T08:28:41;36.75;34.00;17.00
72307;PMS5003;60257;42.638;23.376;2022-12-18T08:31:07;43.75;38.50;21.75
72307;PMS5003;60257;42.638;23.376;2022-12-18T08:33:34;41.00;35.25;21.00
72307;PMS5003;60257;42.638;23.376;2022-12-18T08:36:00;45.50;36.75;18.25
72307;PMS5003;60257;42.638;23.376;2022-12-18T08:38:26;40.25;39.00;22.75
72307;PMS5003;60257;42.638;23.376;2022-12-18T08:40:58;37.25;37.00;21.25
72307;PMS5003;60257;42.638;23.376;2022-12-18T08:43:44;39.25;35.00;19.00
72307;PMS5003;60257;42.638;23.376;2022-12-18T08:46:31;42.50;40.50;23.25
72307;PMS5003;60257;42.638;23.376;2022-12-18T08:49:00;43.75;41.00;26.25
72307;PMS5003;60257;42.638;23.376;2022-12-18T08:51:25;40.75;35.50;16.50
72307;PMS5003;60257;42.638;23.376;2022-12-18T08:53:51;41.50;37.75;19.00
72307;PMS5003;60257;42.638;23.376;2022-12-18T08:56:16;53.50;47.25;27.25
72307;PMS5003;60257;42.638;23.376;2022-12-18T08:58:42;44.75;41.75;29.75
72307;PMS5003;60257;42.638;23.376;2022-12-18T09:01:08;49.00;43.00;25.00
72307;PMS5003;60257;42.638;23.376;2022-12-18T09:03:36;38.50;37.00;22.00
72307;PMS5003;60257;42.638;23.376;2022-12-18T09:06:02;48.75;43.00;24.75
72307;PMS5003;60257;42.638;23.376;2022-12-18T09:08:28;41.50;38.50;21.75
72307;PMS5003;60257;42.638;23.376;2022-12-18T09:10:54;34.25;33.25;24.25
72307;PMS5003;60257;42.638;23.376;2022-12-18T09:13:20;46.00;40.50;23.75
72307;PMS5003;60257;42.638;23.376;2022-12-18T09:15:49;41.75;39.00;27.25
72307;PMS5003;60257;42.638;23.376;2022-12-18T09:18:18;40.50;36.75;25.25
72307;PMS5003;60257;42.638;23.376;2022-12-18T09:20:45;45.00;35.75;26.25
72307;PMS5003;60257;42.638;23.376;2022-12-18T09:23:11;40.25;38.00;19.00
72307;PMS5003;60257;42.638;23.376;2022-12-18T09:25:37;49.00;44.00;27.00
72307;PMS5003;60257;42.638;23.376;2022-12-18T09:28:05;46.50;40.75;25.50
72307;PMS5003;60257;42.638;23.376;2022-12-18T09:30:39;64.00;49.00;30.00
72307;PMS5003;60257;42.638;23.376;2022-12-18T09:33:06;49.75;44.00;24.25
72307;PMS5003;60257;42.638;23.376;2022-12-18T09:35:32;46.75;41.75;22.25
72307;PMS5003;60257;42.638;23.376;2022-12-18T09:37:57;44.50;40.25;23.00
72307;PMS5003;60257;42.638;23.376;2022-12-18T09:40:24;41.75;34.00;21.00
72307;PMS5003;60257;42.638;23.376;2022-12-18T09:42:55;43.25;36.00;21.25
72307;PMS5003;60257;42.638;23.376;2022-12-18T09:45:24;40.25;33.75;21.00
72307;PMS5003;60257;42.638;23.376;2022-12-18T09:47:50;13.00;12.25;0.00
72307;PMS5003;60257;42.638;23.376;2022-12-18T09:50:32;55.00;41.25;24.50
72307;PMS5003;60257;42.638;23.376;2022-12-18T09:53:04;40.33;37.33;21.67
72307;PMS5003;60257;42.638;23.376;2022-12-18T09:55:36;43.00;38.50;21.75
72307;PMS5003;60257;42.638;23.376;2022-12-18T09:58:06;47.00;40.25;20.50
72307;PMS5003;60257;42.638;23.376;2022-12-18T10:00:35;42.00;40.75;26.25
72307;PMS5003;60257;42.638;23.376;2022-12-18T10:03:02;51.25;42.00;22.00
72307;PMS5003;60257;42.638;23.376;2022-12-18T10:10:53;42.33;40.00;21.00
72307;PMS5003;60257;42.638;23.376;2022-12-18T10:21:30;52.25;42.75;25.50
72307;PMS5003;60257;42.638;23.376;2022-12-18T10:26:50;43.50;39.25;23.25
72307;PMS5003;60257;42.638;23.376;2022-12-18T10:29:17;31.67;31.00;18.33
72307;PMS5003;60257;42.638;23.376;2022-12-18T10:31:43;48.50;41.75;24.00
72307;PMS5003;60257;42.638;23.376;2022-12-18T10:34:12;46.75;39.75;22.00
72307;PMS5003;60257;42.638;23.376;2022-12-18T10:36:39;44.50;37.00;23.25
72307;PMS5003;60257;42.638;23.376;2022-12-18T10:39:19;33.50;32.25;18.75
72307;PMS5003;60257;42.638;23.376;2022-12-18T10:41:51;45.75;41.25;22.75
72307;PMS5003;60257;42.638;23.376;2022-12-18T10:46:53;53.00;40.75;26.00
72307;PMS5003;60257;42.638;23.376;2022-12-18T10:49:27;31.00;29.00;16.00
72307;PMS5003;60257;42.638;23.376;2022-12-18T10:52:11;53.50;44.75;26.50
72307;PMS5003;60257;42.638;23.376;2022-12-18T10:55:01;53.50;42.00;23.00
72307;PMS5003;60257;42.638;23.376;2022-12-18T10:57:30;44.50;41.00;22.75
72307;PMS5003;60257;42.638;23.376;2022-12-18T11:02:46;46.25;41.00;21.75
72307;PMS5003;60257;42.638;23.376;2022-12-18T11:05:25;40.75;36.25;20.00
72307;PMS5003;60257;42.638;23.376;2022-12-18T11:07:52;44.25;39.50;24.50
72307;PMS5003;60257;42.638;23.376;2022-12-18T11:10:23;54.00;46.00;26.00
72307;PMS5003;60257;42.638;23.376;2022-12-18T11:12:55;46.00;40.25;25.25
72307;PMS5003;60257;42.638;23.376;2022-12-18T11:15:24;41.50;39.25;24.00
72307;PMS5003;60257;42.638;23.376;2022-12-18T11:17:53;47.25;39.75;21.00
72307;PMS5003;60257;42.638;23.376;2022-12-18T11:20:25;35.50;35.50;24.50
72307;PMS5003;60257;42.638;23.376;2022-12-18T11:23:00;33.25;30.00;18.75
72307;PMS5003;60257;42.638;23.376;2022-12-18T11:25:29;47.00;39.50;20.75
72307;PMS5003;60257;42.638;23.376;2022-12-18T11:28:00;32.50;31.25;18.50
72307;PMS5003;60257;42.638;23.376;2022-12-18T11:30:34;36.25;35.00;20.00
72307;PMS5003;60257;42.638;23.376;2022-12-18T11:33:11;29.50;24.00;14.00
72307;PMS5003;60257;42.638;23.376;2022-12-18T11:38:28;31.25;31.25;17.00
72307;PMS5003;60257;42.638;23.376;2022-12-18T11:41:02;61.25;48.00;28.25
72307;PMS5003;60257;42.638;23.376;2022-12-18T11:43:38;50.00;43.50;24.50
72307;PMS5003;60257;42.638;23.376;2022-12-18T11:46:14;45.25;40.75;21.50
72307;PMS5003;60257;42.638;23.376;2022-12-18T11:48:52;44.75;41.00;21.25
72307;PMS5003;60257;42.638;23.376;2022-12-18T11:51:25;38.67;34.33;20.00
72307;PMS5003;60257;42.638;23.376;2022-12-18T11:53:57;44.75;38.75;23.75
72307;PMS5003;60257;42.638;23.376;2022-12-18T11:56:29;39.00;35.00;18.00
72307;PMS5003;60257;42.638;23.376;2022-12-18T12:04:40;44.25;38.75;21.75
72307;PMS5003;60257;42.638;23.376;2022-12-18T12:12:55;45.25;37.50;20.75
72307;PMS5003;60257;42.638;23.376;2022-12-18T12:21:10;46.75;40.25;22.00
72307;PMS5003;60257;42.638;23.376;2022-12-18T12:23:58;52.75;43.00;24.25
72307;PMS5003;60257;42.638;23.376;2022-12-18T12:26:45;52.00;41.00;25.50
72307;PMS5003;60257;42.638;23.376;2022-12-18T12:29:29;47.75;40.25;23.75
72307;PMS5003;60257;42.638;23.376;2022-12-18T12:34:26;55.25;45.50;25.50
72307;PMS5003;60257;42.638;23.376;2022-12-18T12:37:19;47.00;42.33;21.00
72307;PMS5003;60257;42.638;23.376;2022-12-18T12:39:48;44.50;40.00;27.00
72307;PMS5003;60257;42.638;23.376;2022-12-18T12:42:26;36.33;35.00;23.67
72307;PMS5003;60257;42.638;23.376;2022-12-18T12:45:26;45.25;40.25;25.00
72307;PMS5003;60257;42.638;23.376;2022-12-18T12:47:59;46.75;41.25;22.50
72307;PMS5003;60257;42.638;23.376;2022-12-18T12:50:29;42.67;38.67;19.00
72307;PMS5003;60257;42.638;23.376;2022-12-18T12:52:59;43.50;35.50;23.00
72307;PMS5003;60257;42.638;23.376;2022-12-18T12:55:31;46.25;41.00;25.25
72307;PMS5003;60257;42.638;23.376;2022-12-18T12:58:01;40.33;34.67;21.67
72307;PMS5003;60257;42.638;23.376;2022-12-18T13:00:31;63.75;51.75;30.25
72307;PMS5003;60257;42.638;23.376;2022-12-18T13:05:51;49.25;40.00;23.75
72307;PMS5003;60257;42.638;23.376;2022-12-18T13:08:26;49.25;41.25;21.50
72307;PMS5003;60257;42.638;23.376;2022-12-18T13:10:56;48.25;43.00;25.25
72307;PMS5003;60257;42.638;23.376;2022-12-18T13:13:54;50.50;41.75;26.00
72307;PMS5003;60257;42.638;23.376;2022-12-18T13:16:22;49.00;42.00;23.75
72307;PMS5003;60257;42.638;23.376;2022-12-18T13:18:50;49.50;43.25;26.00
72307;PMS5003;60257;42.638;23.376;2022-12-18T13:21:19;43.25;38.50;21.50
72307;PMS5003;60257;42.638;23.376;2022-12-18T13:23:49;50.00;43.75;27.00
72307;PMS5003;60257;42.638;23.376;2022-12-18T13:36:50;51.75;45.00;26.00
72307;PMS5003;60257;42.638;23.376;2022-12-18T13:42:35;43.50;39.00;23.00
72307;PMS5003;60257;42.638;23.376;2022-12-18T13:44:57;48.25;41.50;26.00
72307;PMS5003;60257;42.638;23.376;2022-12-18T13:47:32;50.25;42.50;25.25
72307;PMS5003;60257;42.638;23.376;2022-12-18T13:50:00;46.00;39.67;21.33
72307;PMS5003;60257;42.638;23.376;2022-12-18T13:52:37;39.33;36.67;17.33
72307;PMS5003;60257;42.638;23.376;2022-12-18T13:55:06;36.00;34.50;22.25
72307;PMS5003;60257;42.638;23.376;2022-12-18T13:57:39;40.67;38.00;21.67
72307;PMS5003;60257;42.638;23.376;2022-12-18T14:00:25;50.75;41.00;23.50
72307;PMS5003;60257;42.638;23.376;2022-12-18T14:02:53;49.00;44.00;21.00
72307;PMS5003;60257;42.638;23.376;2022-12-18T14:05:28;47.25;39.75;21.00
72307;PMS5003;60257;42.638;23.376;2022-12-18T14:07:54;53.50;42.75;24.75
72307;PMS5003;60257;42.638;23.376;2022-12-18T14:10:25;48.00;41.50;24.00
72307;PMS5003;60257;42.638;23.376;2022-12-18T14:12:51;49.25;41.75;25.75
72307;PMS5003;60257;42.638;23.376;2022-12-18T14:20:22;56.50;43.25;26.00
72307;PMS5003;60257;42.638;23.376;2022-12-18T14:22:49;38.50;37.25;21.75
72307;PMS5003;60257;42.638;23.376;2022-12-18T14:25:19;40.00;29.00;17.75
72307;PMS5003;60257;42.638;23.376;2022-12-18T14:28:00;48.50;42.25;26.00
72307;PMS5003;60257;42.638;23.376;2022-12-18T14:30:39;45.25;39.25;22.25
72307;PMS5003;60257;42.638;23.376;2022-12-18T14:33:20;46.00;40.00;21.33
72307;PMS5003;60257;42.638;23.376;2022-12-18T14:36:00;42.25;38.50;21.50
72307;PMS5003;60257;42.638;23.376;2022-12-18T14:38:37;36.00;31.00;17.67
72307;PMS5003;60257;42.638;23.376;2022-12-18T14:43:38;41.33;33.67;19.33
72307;PMS5003;60257;42.638;23.376;2022-12-18T14:46:05;42.00;35.75;19.50
72307;PMS5003;60257;42.638;23.376;2022-12-18T14:48:52;29.33;28.33;16.33
72307;PMS5003;60257;42.638;23.376;2022-12-18T14:51:19;36.00;33.67;17.00
72307;PMS5003;60257;42.638;23.376;2022-12-18T14:53:53;33.25;28.50;15.50
72307;PMS5003;60257;42.638;23.376;2022-12-18T14:56:31;43.67;38.67;22.33
72307;PMS5003;60257;42.638;23.376;2022-12-18T14:58:59;40.00;37.67;20.33
72307;PMS5003;60257;42.638;23.376;2022-12-18T15:04:00;42.00;35.00;20.00
72307;PMS5003;60257;42.638;23.376;2022-12-18T15:06:35;41.75;38.00;26.00
72307;PMS5003;60257;42.638;23.376;2022-12-18T15:09:06;51.50;43.50;25.75
72307;PMS5003;60257;42.638;23.376;2022-12-18T15:11:47;4.67;0.33;0.00
72307;PMS5003;60257;42.638;23.376;2022-12-18T15:16:55;44.50;37.75;22.00
72307;PMS5003;60257;42.638;23.376;2022-12-18T15:19:25;44.00;40.67;21.67
72307;PMS5003;60257;42.638;23.376;2022-12-18T15:22:04;50.50;41.50;22.00
72307;PMS5003;60257;42.638;23.376;2022-12-18T15:24:48;44.25;35.75;21.50
72307;PMS5003;60257;42.638;23.376;2022-12-18T15:27:31;48.00;41.50;27.00
72307;PMS5003;60257;42.638;23.376;2022-12-18T15:32:32;50.50;43.50;27.00
72307;PMS5003;60257;42.638;23.376;2022-12-18T15:35:18;44.00;39.75;26.50
72307;PMS5003;60257;42.638;23.376;2022-12-18T15:37:45;36.00;33.50;17.25
72307;PMS5003;60257;42.638;23.376;2022-12-18T15:40:14;48.75;38.50;22.00
72307;PMS5003;60257;42.638;23.376;2022-12-18T15:42:44;44.67;40.67;23.00
72307;PMS5003;60257;42.638;23.376;2022-12-18T15:45:30;26.75;20.50;11.00